sensor_id;sensor_type;location;lat;lon;timestamp;temperature;humidity
6824;DHT22;58633;49.470;11.004;2023-09-19T00:00:37;19.30;82.80
6824;DHT22;58633;49.470;11.004;2023-09-19T00:03:03;19.20;82.20
6824;DHT22;58633;49.470;11.004;2023-09-19T00:05:34;19.20;82.10
6824;DHT22;58633;49.470;11.004;2023-09-19T00:08:00;19.20;82.20
6824;DHT22;58633;49.470;11.004;2023-09-19T00:10:27;19.10;82.50
6824;DHT22;58633;49.470;11.004;2023-09-19T00:12:57;19.10;82.80
6824;DHT22;58633;49.470;11.004;2023-09-19T00:15:25;19.10;82.40
6824;DHT22;58633;49.470;11.004;2023-09-19T00:17:55;19.10;82.60
6824;DHT22;58633;49.470;11.004;2023-09-19T00:20:21;19.20;82.20
6824;DHT22;58633;49.470;11.004;2023-09-19T00:22:51;19.20;82.10
6824;DHT22;58633;49.470;11.004;2023-09-19T00:25:17;19.10;81.50
6824;DHT22;58633;49.470;11.004;2023-09-19T00:27:43;19.20;81.60
6824;DHT22;58633;49.470;11.004;2023-09-19T00:30:11;19.10;81.30
6824;DHT22;58633;49.470;11.004;2023-09-19T00:32:41;19.20;81.80
6824;DHT22;58633;49.470;11.004;2023-09-19T00:35:07;19.20;81.70
6824;DHT22;58633;49.470;11.004;2023-09-19T00:37:37;19.20;81.70
6824;DHT22;58633;49.470;11.004;2023-09-19T00:40:07;19.20;82.00
6824;DHT22;58633;49.470;11.004;2023-09-19T00:42:37;19.10;82.30
6824;DHT22;58633;49.470;11.004;2023-09-19T00:45:04;19.00;82.70
6824;DHT22;58633;49.470;11.004;2023-09-19T00:47:30;19.00;83.10
6824;DHT22;58633;49.470;11.004;2023-09-19T00:49:56;19.00;83.00
6824;DHT22;58633;49.470;11.004;2023-09-19T00:52:22;19.00;82.30
6824;DHT22;58633;49.470;11.004;2023-09-19T00:54:49;19.00;81.50
6824;DHT22;58633;49.470;11.004;2023-09-19T00:57:15;19.00;81.10
6824;DHT22;58633;49.470;11.004;2023-09-19T00:59:45;18.90;80.80
6824;DHT22;58633;49.470;11.004;2023-09-19T01:02:11;19.00;80.60
6824;DHT22;58633;49.470;11.004;2023-09-19T01:04:40;18.90;80.30
6824;DHT22;58633;49.470;11.004;2023-09-19T01:07:05;19.00;80.50
6824;DHT22;58633;49.470;11.004;2023-09-19T01:09:31;18.90;80.20
6824;DHT22;58633;49.470;11.004;2023-09-19T01:12:01;18.90;80.60
6824;DHT22;58633;49.470;11.004;2023-09-19T01:15:24;19.00;81.00
6824;DHT22;58633;49.470;11.004;2023-09-19T01:17:57;19.00;80.50
6824;DHT22;58633;49.470;11.004;2023-09-19T01:20:53;18.90;80.40
6824;DHT22;58633;49.470;11.004;2023-09-19T01:29:19;18.80;81.40
6824;DHT22;58633;49.470;11.004;2023-09-19T01:31:51;18.90;81.40
6824;DHT22;58633;49.470;11.004;2023-09-19T01:34:19;18.80;81.50
6824;DHT22;58633;49.470;11.004;2023-09-19T01:36:45;18.90;81.80
6824;DHT22;58633;49.470;11.004;2023-09-19T01:39:12;18.80;81.90
6824;DHT22;58633;49.470;11.004;2023-09-19T01:44:24;18.80;83.20
6824;DHT22;58633;49.470;11.004;2023-09-19T01:46:52;18.80;84.00
6824;DHT22;58633;49.470;11.004;2023-09-19T01:49:39;18.90;84.80
6824;DHT22;58633;49.470;11.004;2023-09-19T01:52:12;18.90;83.50
6824;DHT22;58633;49.470;11.004;2023-09-19T01:54:48;18.90;83.50
6824;DHT22;58633;49.470;11.004;2023-09-19T01:57:20;18.90;83.50
6824;DHT22;58633;49.470;11.004;2023-09-19T01:59:54;18.80;83.20
6824;DHT22;58633;49.470;11.004;2023-09-19T02:02:22;18.80;83.80
6824;DHT22;58633;49.470;11.004;2023-09-19T02:04:49;18.80;84.10
6824;DHT22;58633;49.470;11.004;2023-09-19T02:07:16;18.80;84.20
6824;DHT22;58633;49.470;11.004;2023-09-19T02:09:42;18.80;84.30
6824;DHT22;58633;49.470;11.004;2023-09-19T02:12:09;18.80;84.00
6824;DHT22;58633;49.470;11.004;2023-09-19T02:14:34;18.90;84.00
6824;DHT22;58633;49.470;11.004;2023-09-19T02:17:04;18.90;83.90
6824;DHT22;58633;49.470;11.004;2023-09-19T02:19:35;18.90;83.60
6824;DHT22;58633;49.470;11.004;2023-09-19T02:22:02;18.90;83.70
6824;DHT22;58633;49.470;11.004;2023-09-19T02:24:33;18.90;83.40
6824;DHT22;58633;49.470;11.004;2023-09-19T02:26:59;18.90;82.90
6824;DHT22;58633;49.470;11.004;2023-09-19T02:29:29;18.90;81.90
6824;DHT22;58633;49.470;11.004;2023-09-19T02:31:55;18.90;82.20
6824;DHT22;58633;49.470;11.004;2023-09-19T02:34:21;18.90;81.20
6824;DHT22;58633;49.470;11.004;2023-09-19T02:36:47;18.90;80.70
6824;DHT22;58633;49.470;11.004;2023-09-19T02:39:13;18.90;80.60
6824;DHT22;58633;49.470;11.004;2023-09-19T02:41:38;18.90;79.90
6824;DHT22;58633;49.470;11.004;2023-09-19T02:44:04;18.90;80.10
6824;DHT22;58633;49.470;11.004;2023-09-19T02:46:33;18.90;80.00
6824;DHT22;58633;49.470;11.004;2023-09-19T02:48:59;19.00;79.60
6824;DHT22;58633;49.470;11.004;2023-09-19T02:51:24;18.90;79.20
6824;DHT22;58633;49.470;11.004;2023-09-19T02:53:50;18.90;78.70
6824;DHT22;58633;49.470;11.004;2023-09-19T02:56:18;18.90;79.20
6824;DHT22;58633;49.470;11.004;2023-09-19T02:58:44;18.90;79.00
6824;DHT22;58633;49.470;11.004;2023-09-19T03:01:10;18.90;78.80
6824;DHT22;58633;49.470;11.004;2023-09-19T03:03:38;18.90;78.90
6824;DHT22;58633;49.470;11.004;2023-09-19T03:06:06;18.90;79.00
6824;DHT22;58633;49.470;11.004;2023-09-19T03:08:33;18.90;78.90
6824;DHT22;58633;49.470;11.004;2023-09-19T03:11:01;18.90;79.00
6824;DHT22;58633;49.470;11.004;2023-09-19T03:13:27;18.90;78.90
6824;DHT22;58633;49.470;11.004;2023-09-19T03:15:54;18.90;78.60
6824;DHT22;58633;49.470;11.004;2023-09-19T03:18:21;18.90;78.80
6824;DHT22;58633;49.470;11.004;2023-09-19T03:20:55;18.90;78.80
6824;DHT22;58633;49.470;11.004;2023-09-19T03:23:21;18.90;78.40
6824;DHT22;58633;49.470;11.004;2023-09-19T03:25:46;18.90;78.60
6824;DHT22;58633;49.470;11.004;2023-09-19T03:28:13;18.90;78.70
6824;DHT22;58633;49.470;11.004;2023-09-19T03:30:38;18.80;78.30
6824;DHT22;58633;49.470;11.004;2023-09-19T03:33:04;18.80;78.60
6824;DHT22;58633;49.470;11.004;2023-09-19T03:35:30;18.80;78.70
6824;DHT22;58633;49.470;11.004;2023-09-19T03:37:56;18.70;78.80
6824;DHT22;58633;49.470;11.004;2023-09-19T03:40:21;18.80;79.00
6824;DHT22;58633;49.470;11.004;2023-09-19T03:42:48;18.70;79.00
6824;DHT22;58633;49.470;11.004;2023-09-19T03:45:14;18.70;79.30
6824;DHT22;58633;49.470;11.004;2023-09-19T03:47:40;18.80;79.10
6824;DHT22;58633;49.470;11.004;2023-09-19T03:50:06;18.80;79.10
6824;DHT22;58633;49.470;11.004;2023-09-19T03:52:40;18.70;79.10
6824;DHT22;58633;49.470;11.004;2023-09-19T03:55:06;18.70;79.10
6824;DHT22;58633;49.470;11.004;2023-09-19T03:57:32;18.70;79.50
6824;DHT22;58633;49.470;11.004;2023-09-19T03:59:57;18.60;79.50
6824;DHT22;58633;49.470;11.004;2023-09-19T04:02:23;18.60;79.60
6824;DHT22;58633;49.470;11.004;2023-09-19T04:04:50;18.60;79.90
6824;DHT22;58633;49.470;11.004;2023-09-19T04:07:16;18.60;80.00
6824;DHT22;58633;49.470;11.004;2023-09-19T04:09:42;18.60;80.00
6824;DHT22;58633;49.470;11.004;2023-09-19T04:12:07;18.50;80.20
6824;DHT22;58633;49.470;11.004;2023-09-19T04:14:35;18.50;80.50
6824;DHT22;58633;49.470;11.004;2023-09-19T04:17:01;18.50;80.50
6824;DHT22;58633;49.470;11.004;2023-09-19T04:19:26;18.50;80.50
6824;DHT22;58633;49.470;11.004;2023-09-19T04:21:52;18.50;80.40
6824;DHT22;58633;49.470;11.004;2023-09-19T04:24:17;18.50;80.90
6824;DHT22;58633;49.470;11.004;2023-09-19T04:26:45;18.50;81.40
6824;DHT22;58633;49.470;11.004;2023-09-19T04:29:10;18.50;81.40
6824;DHT22;58633;49.470;11.004;2023-09-19T04:31:36;18.50;81.30
6824;DHT22;58633;49.470;11.004;2023-09-19T04:34:03;18.50;81.40
6824;DHT22;58633;49.470;11.004;2023-09-19T04:36:29;18.50;81.60
6824;DHT22;58633;49.470;11.004;2023-09-19T04:38:55;18.50;82.20
6824;DHT22;58633;49.470;11.004;2023-09-19T04:41:20;18.50;81.90
6824;DHT22;58633;49.470;11.004;2023-09-19T04:43:47;18.50;81.60
6824;DHT22;58633;49.470;11.004;2023-09-19T04:46:15;18.50;81.40
6824;DHT22;58633;49.470;11.004;2023-09-19T04:48:40;18.50;81.80
6824;DHT22;58633;49.470;11.004;2023-09-19T04:51:06;18.50;81.70
6824;DHT22;58633;49.470;11.004;2023-09-19T04:53:32;18.40;82.10
6824;DHT22;58633;49.470;11.004;2023-09-19T04:55:58;18.50;82.30
6824;DHT22;58633;49.470;11.004;2023-09-19T04:58:23;18.40;82.60
6824;DHT22;58633;49.470;11.004;2023-09-19T05:00:49;18.50;82.80
6824;DHT22;58633;49.470;11.004;2023-09-19T05:03:16;18.50;83.00
6824;DHT22;58633;49.470;11.004;2023-09-19T05:05:42;18.50;82.50
6824;DHT22;58633;49.470;11.004;2023-09-19T05:08:08;18.50;82.70
6824;DHT22;58633;49.470;11.004;2023-09-19T05:10:35;18.50;82.80
6824;DHT22;58633;49.470;11.004;2023-09-19T05:13:03;18.60;82.80
6824;DHT22;58633;49.470;11.004;2023-09-19T05:15:30;18.60;82.60
6824;DHT22;58633;49.470;11.004;2023-09-19T05:17:55;18.60;82.50
6824;DHT22;58633;49.470;11.004;2023-09-19T05:20:22;18.60;82.40
6824;DHT22;58633;49.470;11.004;2023-09-19T05:23:04;18.60;82.30
6824;DHT22;58633;49.470;11.004;2023-09-19T05:25:35;18.50;82.50
6824;DHT22;58633;49.470;11.004;2023-09-19T05:28:02;18.50;82.90
6824;DHT22;58633;49.470;11.004;2023-09-19T05:30:29;18.60;82.70
6824;DHT22;58633;49.470;11.004;2023-09-19T05:32:55;18.60;82.40
6824;DHT22;58633;49.470;11.004;2023-09-19T05:35:21;18.50;82.50
6824;DHT22;58633;49.470;11.004;2023-09-19T05:37:50;18.60;82.70
6824;DHT22;58633;49.470;11.004;2023-09-19T05:40:17;18.60;82.60
6824;DHT22;58633;49.470;11.004;2023-09-19T05:42:43;18.60;82.70
6824;DHT22;58633;49.470;11.004;2023-09-19T05:45:10;18.60;82.40
6824;DHT22;58633;49.470;11.004;2023-09-19T05:47:42;18.60;82.90
6824;DHT22;58633;49.470;11.004;2023-09-19T05:50:09;18.60;83.00
6824;DHT22;58633;49.470;11.004;2023-09-19T05:52:36;18.60;82.90
6824;DHT22;58633;49.470;11.004;2023-09-19T05:55:06;18.60;82.90
6824;DHT22;58633;49.470;11.004;2023-09-19T05:57:36;18.60;82.90
6824;DHT22;58633;49.470;11.004;2023-09-19T06:00:02;18.60;82.90
6824;DHT22;58633;49.470;11.004;2023-09-19T06:02:34;18.60;83.20
6824;DHT22;58633;49.470;11.004;2023-09-19T06:05:01;18.60;82.70
6824;DHT22;58633;49.470;11.004;2023-09-19T06:07:26;18.60;82.70
6824;DHT22;58633;49.470;11.004;2023-09-19T06:09:54;18.60;82.80
6824;DHT22;58633;49.470;11.004;2023-09-19T06:12:19;18.70;82.50
6824;DHT22;58633;49.470;11.004;2023-09-19T06:14:45;18.70;82.50
6824;DHT22;58633;49.470;11.004;2023-09-19T06:17:11;18.80;82.10
6824;DHT22;58633;49.470;11.004;2023-09-19T06:19:37;18.80;82.10
6824;DHT22;58633;49.470;11.004;2023-09-19T06:22:02;18.80;81.30
6824;DHT22;58633;49.470;11.004;2023-09-19T06:24:29;18.80;81.20
6824;DHT22;58633;49.470;11.004;2023-09-19T06:26:54;18.90;80.90
6824;DHT22;58633;49.470;11.004;2023-09-19T06:29:20;18.90;81.00
6824;DHT22;58633;49.470;11.004;2023-09-19T06:31:46;18.90;80.90
6824;DHT22;58633;49.470;11.004;2023-09-19T06:34:12;18.90;80.20
6824;DHT22;58633;49.470;11.004;2023-09-19T06:36:40;18.90;80.40
6824;DHT22;58633;49.470;11.004;2023-09-19T06:39:06;18.90;80.10
6824;DHT22;58633;49.470;11.004;2023-09-19T06:41:32;18.90;80.10
6824;DHT22;58633;49.470;11.004;2023-09-19T06:43:57;18.80;79.70
6824;DHT22;58633;49.470;11.004;2023-09-19T06:46:23;18.80;79.70
6824;DHT22;58633;49.470;11.004;2023-09-19T06:48:50;18.90;79.50
6824;DHT22;58633;49.470;11.004;2023-09-19T06:51:18;18.90;79.00
6824;DHT22;58633;49.470;11.004;2023-09-19T06:53:43;18.90;79.10
6824;DHT22;58633;49.470;11.004;2023-09-19T06:56:09;19.00;78.80
6824;DHT22;58633;49.470;11.004;2023-09-19T06:58:35;19.00;78.00
6824;DHT22;58633;49.470;11.004;2023-09-19T07:01:02;19.00;77.60
6824;DHT22;58633;49.470;11.004;2023-09-19T07:03:28;19.00;76.70
6824;DHT22;58633;49.470;11.004;2023-09-19T07:05:54;19.10;74.80
6824;DHT22;58633;49.470;11.004;2023-09-19T07:08:21;19.10;74.10
6824;DHT22;58633;49.470;11.004;2023-09-19T07:10:47;19.20;72.70
6824;DHT22;58633;49.470;11.004;2023-09-19T07:13:18;19.10;70.90
6824;DHT22;58633;49.470;11.004;2023-09-19T07:15:44;19.10;70.70
6824;DHT22;58633;49.470;11.004;2023-09-19T07:18:18;19.20;70.10
6824;DHT22;58633;49.470;11.004;2023-09-19T07:20:45;19.20;69.80
6824;DHT22;58633;49.470;11.004;2023-09-19T07:23:21;19.30;69.50
6824;DHT22;58633;49.470;11.004;2023-09-19T07:25:48;19.30;69.40
6824;DHT22;58633;49.470;11.004;2023-09-19T07:28:14;19.30;68.80
6824;DHT22;58633;49.470;11.004;2023-09-19T07:30:40;19.30;68.00
6824;DHT22;58633;49.470;11.004;2023-09-19T07:33:07;19.20;68.10
6824;DHT22;58633;49.470;11.004;2023-09-19T07:35:33;19.30;67.50
6824;DHT22;58633;49.470;11.004;2023-09-19T07:37:59;19.30;66.40
6824;DHT22;58633;49.470;11.004;2023-09-19T07:40:27;19.30;65.90
6824;DHT22;58633;49.470;11.004;2023-09-19T07:42:57;19.30;65.50
6824;DHT22;58633;49.470;11.004;2023-09-19T07:45:29;19.30;65.20
6824;DHT22;58633;49.470;11.004;2023-09-19T07:47:55;19.40;65.10
6824;DHT22;58633;49.470;11.004;2023-09-19T07:50:21;19.40;65.40
6824;DHT22;58633;49.470;11.004;2023-09-19T07:52:48;19.50;65.30
6824;DHT22;58633;49.470;11.004;2023-09-19T07:55:16;19.60;65.00
6824;DHT22;58633;49.470;11.004;2023-09-19T07:57:42;19.60;64.70
6824;DHT22;58633;49.470;11.004;2023-09-19T08:00:09;19.60;64.00
6824;DHT22;58633;49.470;11.004;2023-09-19T08:02:39;19.70;64.00
6824;DHT22;58633;49.470;11.004;2023-09-19T08:05:06;19.80;63.60
6824;DHT22;58633;49.470;11.004;2023-09-19T08:07:32;19.80;63.10
6824;DHT22;58633;49.470;11.004;2023-09-19T08:09:58;19.90;63.20
6824;DHT22;58633;49.470;11.004;2023-09-19T08:12:24;19.90;63.30
6824;DHT22;58633;49.470;11.004;2023-09-19T08:14:49;19.90;63.20
6824;DHT22;58633;49.470;11.004;2023-09-19T08:17:15;19.90;63.20
6824;DHT22;58633;49.470;11.004;2023-09-19T08:19:41;19.90;62.90
6824;DHT22;58633;49.470;11.004;2023-09-19T08:22:07;19.90;63.20
6824;DHT22;58633;49.470;11.004;2023-09-19T08:24:36;19.90;63.60
6824;DHT22;58633;49.470;11.004;2023-09-19T08:27:03;19.90;63.80
6824;DHT22;58633;49.470;11.004;2023-09-19T08:29:30;20.00;64.30
6824;DHT22;58633;49.470;11.004;2023-09-19T08:31:58;20.10;64.20
6824;DHT22;58633;49.470;11.004;2023-09-19T08:34:24;20.20;63.70
6824;DHT22;58633;49.470;11.004;2023-09-19T08:36:51;20.30;63.60
6824;DHT22;58633;49.470;11.004;2023-09-19T08:39:18;20.50;63.80
6824;DHT22;58633;49.470;11.004;2023-09-19T08:41:44;20.60;63.30
6824;DHT22;58633;49.470;11.004;2023-09-19T08:44:10;20.60;63.30
6824;DHT22;58633;49.470;11.004;2023-09-19T08:46:37;20.70;62.40
6824;DHT22;58633;49.470;11.004;2023-09-19T08:49:07;20.70;62.40
6824;DHT22;58633;49.470;11.004;2023-09-19T08:51:42;20.80;62.60
6824;DHT22;58633;49.470;11.004;2023-09-19T08:54:35;20.80;62.00
6824;DHT22;58633;49.470;11.004;2023-09-19T08:57:06;20.90;61.90
6824;DHT22;58633;49.470;11.004;2023-09-19T08:59:38;20.90;60.90
6824;DHT22;58633;49.470;11.004;2023-09-19T09:02:11;21.00;61.20
6824;DHT22;58633;49.470;11.004;2023-09-19T09:04:41;21.00;60.90
6824;DHT22;58633;49.470;11.004;2023-09-19T09:07:12;21.00;60.40
6824;DHT22;58633;49.470;11.004;2023-09-19T09:09:42;21.00;60.30
6824;DHT22;58633;49.470;11.004;2023-09-19T09:12:12;20.80;60.20
6824;DHT22;58633;49.470;11.004;2023-09-19T09:14:45;20.80;60.60
6824;DHT22;58633;49.470;11.004;2023-09-19T09:17:12;20.70;60.30
6824;DHT22;58633;49.470;11.004;2023-09-19T09:19:38;20.60;60.50
6824;DHT22;58633;49.470;11.004;2023-09-19T09:22:11;20.60;60.90
6824;DHT22;58633;49.470;11.004;2023-09-19T09:24:37;20.60;60.70
6824;DHT22;58633;49.470;11.004;2023-09-19T09:27:05;20.60;59.70
6824;DHT22;58633;49.470;11.004;2023-09-19T09:29:49;20.50;59.20
6824;DHT22;58633;49.470;11.004;2023-09-19T09:32:28;20.50;59.50
6824;DHT22;58633;49.470;11.004;2023-09-19T09:34:56;20.60;59.00
6824;DHT22;58633;49.470;11.004;2023-09-19T09:37:23;20.60;59.00
6824;DHT22;58633;49.470;11.004;2023-09-19T09:39:55;20.60;58.70
6824;DHT22;58633;49.470;11.004;2023-09-19T09:42:35;20.60;58.90
6824;DHT22;58633;49.470;11.004;2023-09-19T09:45:18;20.60;58.90
6824;DHT22;58633;49.470;11.004;2023-09-19T09:48:00;20.60;59.00
6824;DHT22;58633;49.470;11.004;2023-09-19T09:50:33;20.70;59.30
6824;DHT22;58633;49.470;11.004;2023-09-19T09:53:26;20.80;59.10
6824;DHT22;58633;49.470;11.004;2023-09-19T09:56:09;20.90;59.10
6824;DHT22;58633;49.470;11.004;2023-09-19T09:58:53;20.90;58.70
6824;DHT22;58633;49.470;11.004;2023-09-19T10:01:21;21.00;58.70
6824;DHT22;58633;49.470;11.004;2023-09-19T10:03:58;20.90;58.30
6824;DHT22;58633;49.470;11.004;2023-09-19T10:06:25;20.80;58.40
6824;DHT22;58633;49.470;11.004;2023-09-19T10:11:49;21.10;58.40
6824;DHT22;58633;49.470;11.004;2023-09-19T10:14:29;21.40;58.60
6824;DHT22;58633;49.470;11.004;2023-09-19T10:16:58;21.70;58.30
6824;DHT22;58633;49.470;11.004;2023-09-19T10:19:54;21.80;57.40
6824;DHT22;58633;49.470;11.004;2023-09-19T10:22:23;21.80;57.80
6824;DHT22;58633;49.470;11.004;2023-09-19T10:24:53;21.80;57.60
6824;DHT22;58633;49.470;11.004;2023-09-19T10:27:20;21.70;57.50
6824;DHT22;58633;49.470;11.004;2023-09-19T10:29:49;21.70;57.20
6824;DHT22;58633;49.470;11.004;2023-09-19T10:32:16;21.70;57.80
6824;DHT22;58633;49.470;11.004;2023-09-19T10:34:46;21.70;57.30
6824;DHT22;58633;49.470;11.004;2023-09-19T10:37:12;21.60;57.10
6824;DHT22;58633;49.470;11.004;2023-09-19T10:39:39;21.50;57.10
6824;DHT22;58633;49.470;11.004;2023-09-19T10:42:06;21.50;57.60
6824;DHT22;58633;49.470;11.004;2023-09-19T10:44:37;21.50;57.80
6824;DHT22;58633;49.470;11.004;2023-09-19T10:47:07;21.60;57.50
6824;DHT22;58633;49.470;11.004;2023-09-19T10:49:34;21.80;57.50
6824;DHT22;58633;49.470;11.004;2023-09-19T10:52:01;21.90;57.20
6824;DHT22;58633;49.470;11.004;2023-09-19T10:54:31;22.00;57.50
6824;DHT22;58633;49.470;11.004;2023-09-19T10:56:59;22.10;56.60
6824;DHT22;58633;49.470;11.004;2023-09-19T10:59:26;22.20;56.90
6824;DHT22;58633;49.470;11.004;2023-09-19T11:02:00;22.50;56.20
6824;DHT22;58633;49.470;11.004;2023-09-19T11:07:05;23.00;53.90
6824;DHT22;58633;49.470;11.004;2023-09-19T11:09:50;23.00;54.30
6824;DHT22;58633;49.470;11.004;2023-09-19T11:12:48;23.20;54.90
6824;DHT22;58633;49.470;11.004;2023-09-19T11:26:50;23.50;53.70
6824;DHT22;58633;49.470;11.004;2023-09-19T11:29:35;23.30;54.20
6824;DHT22;58633;49.470;11.004;2023-09-19T11:32:01;23.20;54.50
6824;DHT22;58633;49.470;11.004;2023-09-19T11:39:40;22.70;54.30
6824;DHT22;58633;49.470;11.004;2023-09-19T11:48:14;22.50;54.10
6824;DHT22;58633;49.470;11.004;2023-09-19T11:50:42;22.70;54.20
6824;DHT22;58633;49.470;11.004;2023-09-19T11:53:12;22.80;53.70
6824;DHT22;58633;49.470;11.004;2023-09-19T11:55:39;22.90;53.40
6824;DHT22;58633;49.470;11.004;2023-09-19T11:58:07;23.10;53.50
6824;DHT22;58633;49.470;11.004;2023-09-19T12:00:37;23.10;52.50
6824;DHT22;58633;49.470;11.004;2023-09-19T12:03:08;23.40;52.60
6824;DHT22;58633;49.470;11.004;2023-09-19T12:05:37;23.30;51.40
6824;DHT22;58633;49.470;11.004;2023-09-19T12:08:04;23.30;50.60
6824;DHT22;58633;49.470;11.004;2023-09-19T12:10:33;23.30;50.60
6824;DHT22;58633;49.470;11.004;2023-09-19T12:12:59;23.30;49.40
6824;DHT22;58633;49.470;11.004;2023-09-19T12:15:25;23.30;50.10
6824;DHT22;58633;49.470;11.004;2023-09-19T12:18:00;23.50;49.90
6824;DHT22;58633;49.470;11.004;2023-09-19T12:20:41;23.60;48.90
6824;DHT22;58633;49.470;11.004;2023-09-19T12:23:13;23.50;48.90
6824;DHT22;58633;49.470;11.004;2023-09-19T12:25:42;23.60;48.50
6824;DHT22;58633;49.470;11.004;2023-09-19T12:28:12;23.60;49.00
6824;DHT22;58633;49.470;11.004;2023-09-19T12:30:37;23.70;49.00
6824;DHT22;58633;49.470;11.004;2023-09-19T12:33:18;24.00;49.40
6824;DHT22;58633;49.470;11.004;2023-09-19T12:35:45;24.20;48.30
6824;DHT22;58633;49.470;11.004;2023-09-19T12:38:10;24.20;47.80
6824;DHT22;58633;49.470;11.004;2023-09-19T12:40:38;24.10;48.50
6824;DHT22;58633;49.470;11.004;2023-09-19T12:43:08;24.10;48.50
6824;DHT22;58633;49.470;11.004;2023-09-19T12:45:35;24.00;48.80
6824;DHT22;58633;49.470;11.004;2023-09-19T12:48:25;24.00;48.20
6824;DHT22;58633;49.470;11.004;2023-09-19T12:51:05;23.90;48.00
6824;DHT22;58633;49.470;11.004;2023-09-19T12:53:44;23.70;48.20
6824;DHT22;58633;49.470;11.004;2023-09-19T12:56:16;23.50;48.50
6824;DHT22;58633;49.470;11.004;2023-09-19T12:58:50;23.50;48.60
6824;DHT22;58633;49.470;11.004;2023-09-19T13:01:16;23.40;49.00
6824;DHT22;58633;49.470;11.004;2023-09-19T13:03:42;23.40;49.00
6824;DHT22;58633;49.470;11.004;2023-09-19T13:06:07;23.60;49.10
6824;DHT22;58633;49.470;11.004;2023-09-19T13:08:36;23.90;48.40
6824;DHT22;58633;49.470;11.004;2023-09-19T13:11:08;24.00;48.10
6824;DHT22;58633;49.470;11.004;2023-09-19T13:14:13;24.10;47.50
6824;DHT22;58633;49.470;11.004;2023-09-19T13:17:04;24.10;47.20
6824;DHT22;58633;49.470;11.004;2023-09-19T13:19:39;24.20;47.20
6824;DHT22;58633;49.470;11.004;2023-09-19T13:22:36;24.30;47.40
6824;DHT22;58633;49.470;11.004;2023-09-19T13:25:01;24.50;47.00
6824;DHT22;58633;49.470;11.004;2023-09-19T13:27:29;24.70;47.10
6824;DHT22;58633;49.470;11.004;2023-09-19T13:29:54;24.80;47.00
6824;DHT22;58633;49.470;11.004;2023-09-19T13:32:20;25.00;47.10
6824;DHT22;58633;49.470;11.004;2023-09-19T13:34:45;25.20;46.70
6824;DHT22;58633;49.470;11.004;2023-09-19T13:37:11;25.20;46.60
6824;DHT22;58633;49.470;11.004;2023-09-19T13:39:38;25.40;46.70
6824;DHT22;58633;49.470;11.004;2023-09-19T13:42:08;25.60;46.50
6824;DHT22;58633;49.470;11.004;2023-09-19T13:44:37;25.90;46.10
6824;DHT22;58633;49.470;11.004;2023-09-19T13:47:03;25.90;45.40
6824;DHT22;58633;49.470;11.004;2023-09-19T13:49:35;25.90;45.20
6824;DHT22;58633;49.470;11.004;2023-09-19T13:52:01;25.80;45.00
6824;DHT22;58633;49.470;11.004;2023-09-19T13:54:28;25.60;45.10
6824;DHT22;58633;49.470;11.004;2023-09-19T13:56:54;25.30;46.10
6824;DHT22;58633;49.470;11.004;2023-09-19T13:59:19;25.10;45.80
6824;DHT22;58633;49.470;11.004;2023-09-19T14:01:49;25.00;46.10
6824;DHT22;58633;49.470;11.004;2023-09-19T14:04:14;25.30;45.60
6824;DHT22;58633;49.470;11.004;2023-09-19T14:06:42;25.60;45.60
6824;DHT22;58633;49.470;11.004;2023-09-19T14:09:07;26.00;44.50
6824;DHT22;58633;49.470;11.004;2023-09-19T14:11:33;25.80;44.40
6824;DHT22;58633;49.470;11.004;2023-09-19T14:13:59;25.80;44.40
6824;DHT22;58633;49.470;11.004;2023-09-19T14:16:25;25.90;44.60
6824;DHT22;58633;49.470;11.004;2023-09-19T14:18:55;26.00;44.10
6824;DHT22;58633;49.470;11.004;2023-09-19T14:21:20;26.20;44.00
6824;DHT22;58633;49.470;11.004;2023-09-19T14:23:46;26.20;43.70
6824;DHT22;58633;49.470;11.004;2023-09-19T14:26:12;26.10;43.70
6824;DHT22;58633;49.470;11.004;2023-09-19T14:28:37;26.30;44.10
6824;DHT22;58633;49.470;11.004;2023-09-19T14:31:05;26.50;43.40
6824;DHT22;58633;49.470;11.004;2023-09-19T14:33:31;26.50;43.30
6824;DHT22;58633;49.470;11.004;2023-09-19T14:35:57;26.70;43.50
6824;DHT22;58633;49.470;11.004;2023-09-19T14:38:22;26.90;43.60
6824;DHT22;58633;49.470;11.004;2023-09-19T14:40:48;27.10;43.00
6824;DHT22;58633;49.470;11.004;2023-09-19T14:43:15;27.20;42.60
6824;DHT22;58633;49.470;11.004;2023-09-19T14:45:41;27.30;43.10
6824;DHT22;58633;49.470;11.004;2023-09-19T14:48:06;27.40;42.10
6824;DHT22;58633;49.470;11.004;2023-09-19T14:50:32;27.40;42.50
6824;DHT22;58633;49.470;11.004;2023-09-19T14:52:58;27.40;42.30
6824;DHT22;58633;49.470;11.004;2023-09-19T14:55:27;27.40;42.00
6824;DHT22;58633;49.470;11.004;2023-09-19T14:57:54;27.40;42.10
6824;DHT22;58633;49.470;11.004;2023-09-19T15:00:22;27.30;42.20
6824;DHT22;58633;49.470;11.004;2023-09-19T15:02:49;27.30;42.60
6824;DHT22;58633;49.470;11.004;2023-09-19T15:05:16;27.30;42.40
6824;DHT22;58633;49.470;11.004;2023-09-19T15:07:41;27.10;42.40
6824;DHT22;58633;49.470;11.004;2023-09-19T15:10:07;27.10;41.90
6824;DHT22;58633;49.470;11.004;2023-09-19T15:12:35;26.90;42.40
6824;DHT22;58633;49.470;11.004;2023-09-19T15:15:04;26.80;42.50
6824;DHT22;58633;49.470;11.004;2023-09-19T15:17:30;26.70;42.70
6824;DHT22;58633;49.470;11.004;2023-09-19T15:19:56;26.60;42.70
6824;DHT22;58633;49.470;11.004;2023-09-19T15:22:21;26.60;42.50
6824;DHT22;58633;49.470;11.004;2023-09-19T15:24:48;26.50;42.70
6824;DHT22;58633;49.470;11.004;2023-09-19T15:27:13;26.40;42.80
6824;DHT22;58633;49.470;11.004;2023-09-19T15:29:39;26.30;43.30
6824;DHT22;58633;49.470;11.004;2023-09-19T15:32:04;26.20;43.00
6824;DHT22;58633;49.470;11.004;2023-09-19T15:34:30;26.00;43.60
6824;DHT22;58633;49.470;11.004;2023-09-19T15:36:56;26.10;44.00
6824;DHT22;58633;49.470;11.004;2023-09-19T15:39:21;26.10;43.80
6824;DHT22;58633;49.470;11.004;2023-09-19T15:41:48;25.80;43.50
6824;DHT22;58633;49.470;11.004;2023-09-19T15:44:19;25.60;43.50
6824;DHT22;58633;49.470;11.004;2023-09-19T15:46:45;25.30;44.10
6824;DHT22;58633;49.470;11.004;2023-09-19T15:49:11;25.10;44.80
6824;DHT22;58633;49.470;11.004;2023-09-19T15:51:37;25.00;45.10
6824;DHT22;58633;49.470;11.004;2023-09-19T15:54:13;25.00;45.10
6824;DHT22;58633;49.470;11.004;2023-09-19T15:56:40;24.80;44.90
6824;DHT22;58633;49.470;11.004;2023-09-19T15:59:09;24.70;45.00
6824;DHT22;58633;49.470;11.004;2023-09-19T16:01:35;24.60;45.60
6824;DHT22;58633;49.470;11.004;2023-09-19T16:04:02;24.60;45.60
6824;DHT22;58633;49.470;11.004;2023-09-19T16:06:29;24.60;45.80
6824;DHT22;58633;49.470;11.004;2023-09-19T16:08:58;24.50;45.80
6824;DHT22;58633;49.470;11.004;2023-09-19T16:11:27;24.50;46.00
6824;DHT22;58633;49.470;11.004;2023-09-19T16:13:53;24.50;46.00
6824;DHT22;58633;49.470;11.004;2023-09-19T16:16:20;24.40;46.10